To NAV CANADA Home Page Login to a new session Search on AWWS site Disclaimer Vers la page française équivalente Tips FAQ What's new on the site To the Forecasts and Observations / NOTAM section To "File a Flight Plan" website Publications and other links Update of the User's profile FIC Telephone Numbers My Weather Data Folder Route Weather Data Regional Weather Data Local Weather Data To the Forecasts and Observations / NOTAM section
Request Generated 11/16/2018 at 20:41:05 UTC . Weather information available at that time is displayed.

METAR/TAF

TORONTO/BILLY BISHOP TORONTO CITY AIRPORT/ON    (show WxCam)

METAR CYTZ 162000Z AUTO 25016G26KT 9SM OVC023 03/M00 A2973 RMK SLP072=
SPECI CYTZ 161944Z AUTO 24025KT 9SM OVC023 03/00 A2972 RMK SLP069=
SPECI CYTZ 161932Z AUTO 24015G23KT 9SM OVC023 03/00 A2972 RMK SLP067=
METAR CYTZ 161900Z AUTO 25017KT 9SM BKN025 OVC050 03/00 A2971 RMK SLP064=
SPECI CYTZ 161851Z AUTO 25016KT 9SM BKN025 OVC055 03/00 A2970 RMK SLP063=
SPECI CYTZ 161843Z AUTO 25015G20KT 9SM BKN023 OVC060 03/00 A2970 RMK SLP063=
SPECI CYTZ 161808Z AUTO 25018KT 9SM SCT021 BKN065 BKN081 03/01 A2970 RMK SLP060=
SPECI CYTZ 161803Z AUTO 25015G23KT 9SM FEW017 BKN023 BKN070 BKN086 03/01 A2970 RMK SLP060=
METAR CYTZ 161800Z AUTO 25016G23KT 9SM FEW017 SCT023 BKN043 BKN070 03/01 A2970 RMK SLP060=

TAF AMD CYTZ 161954Z 1620/1720 25018G28KT P6SM BKN025 OVC050 TEMPO
1620/1704 OVC020
BECMG 1622/1624 25015KT
FM170400 25015KT P6SM BKN030
BECMG 1713/1715 25012G22KT
RMK FCST BASED ON AUTO OBS. NXT FCST BY 170200Z=
Your time UTC time
Weather data provided by Environment Canada and NAV CANADA